createdAt,value
2023-01-21T00:01:00.345Z,100864.22
2023-01-21T00:03:27.046Z,100945.97
2023-01-21T00:05:53.736Z,100770.31
2023-01-21T00:08:20.375Z,100945.97
2023-01-21T00:10:47.227Z,100827.69
2023-01-21T00:13:13.809Z,100992.09
2023-01-21T00:15:40.348Z,101012.94
2023-01-21T00:18:06.935Z,100967.69
2023-01-21T00:20:33.568Z,101008.59
2023-01-21T00:23:00.150Z,100947.63
2023-01-21T00:25:26.756Z,100962.41
2023-01-21T00:27:53.345Z,101021.63
2023-01-21T00:30:20.035Z,100895.38
2023-01-21T00:32:46.674Z,100964.97
2023-01-21T00:35:13.363Z,100921.50
2023-01-21T00:37:40.041Z,101002.44
2023-01-21T00:40:07.208Z,101027.69
2023-01-21T00:42:33.848Z,100909.28
2023-01-21T00:45:00.607Z,101048.50
2023-01-21T00:47:28.148Z,100937.97
2023-01-21T00:49:54.730Z,100916.13
2023-01-21T00:52:21.347Z,100942.28
2023-01-21T00:54:48.068Z,100821.31
2023-01-21T00:57:14.782Z,100754.38
2023-01-21T00:59:43.951Z,101023.16
2023-01-21T01:02:12.772Z,100934.41
2023-01-21T01:04:39.600Z,100878.69
2023-01-21T01:07:06.257Z,101009.22
2023-01-21T01:09:32.931Z,101000.53
2023-01-21T01:11:59.652Z,100983.00
2023-01-21T01:14:26.264Z,100954.25
2023-01-21T01:16:52.719Z,101022.16
2023-01-21T01:19:19.257Z,100955.94
2023-01-21T01:21:45.869Z,101033.38
2023-01-21T01:24:12.627Z,100982.84
2023-01-21T01:26:42.251Z,101008.16
2023-01-21T01:29:13.688Z,100860.88
2023-01-21T01:31:40.492Z,101080.34
2023-01-21T01:34:07.675Z,101059.31
2023-01-21T01:36:34.373Z,101013.03
2023-01-21T01:39:01.484Z,101042.53
2023-01-21T01:41:30.280Z,101062.56
2023-01-21T01:43:59.543Z,101125.19
2023-01-21T01:46:29.614Z,101124.25
2023-01-21T01:49:05.337Z,101128.53
2023-01-21T01:51:53.172Z,100996.75
2023-01-21T01:54:28.802Z,100965.28
2023-01-21T01:56:59.298Z,101145.63
2023-01-21T01:59:26.840Z,101062.75
2023-01-21T02:01:53.996Z,100974.53
2023-01-21T02:04:26.182Z,100889.03
2023-01-21T02:06:55.306Z,101028.53
2023-01-21T02:09:22.096Z,101154.16
2023-01-21T02:11:49.246Z,101053.72
2023-01-21T02:14:16.428Z,101128.78
2023-01-21T02:16:55.372Z,101107.63
2023-01-21T02:19:35.882Z,101078.09
2023-01-21T02:22:47.870Z,101175.97
2023-01-21T02:25:35.916Z,101174.22
2023-01-21T02:28:20.773Z,101175.91
2023-01-21T02:31:15.521Z,101103.44
2023-01-21T02:33:50.508Z,101148.75
2023-01-21T02:36:19.862Z,101173.16
2023-01-21T02:39:09.429Z,101160.88
2023-01-21T02:42:01.193Z,101187.91
2023-01-21T02:44:39.311Z,101187.81
2023-01-21T02:47:32.190Z,101193.78
2023-01-21T02:50:11.653Z,101108.13
2023-01-21T02:52:38.150Z,101177.94
2023-01-21T02:55:05.168Z,101199.69
2023-01-21T02:57:41.518Z,101198.59
2023-01-21T03:00:28.127Z,101118.34
2023-01-21T03:03:22.216Z,101201.22
2023-01-21T03:06:08.578Z,101207.19
2023-01-21T03:09:07.292Z,101170.38
2023-01-21T03:11:33.949Z,101201.66
2023-01-21T03:14:34.204Z,101195.41
2023-01-21T03:17:08.883Z,101145.44
2023-01-21T03:19:42.401Z,101154.16
2023-01-21T03:22:15.070Z,101214.38
2023-01-21T03:24:45.233Z,101200.34
2023-01-21T03:27:16.340Z,101229.91
2023-01-21T03:29:46.291Z,101237.56
2023-01-21T03:32:16.143Z,101213.75
2023-01-21T03:34:46.821Z,101240.91
2023-01-21T03:37:13.087Z,101248.59
2023-01-21T03:40:20.343Z,101245.94
2023-01-21T03:42:50.569Z,101234.44
2023-01-21T03:45:24.630Z,101247.47
2023-01-21T03:47:58.857Z,101244.84
2023-01-21T03:50:38.245Z,101257.88
2023-01-21T03:53:06.854Z,101248.28
2023-01-21T03:55:35.979Z,101204.56
2023-01-21T03:58:02.542Z,101168.75
2023-01-21T04:00:29.072Z,101249.16
2023-01-21T04:02:55.453Z,101223.78
2023-01-21T04:05:21.925Z,101193.84
2023-01-21T04:07:48.450Z,101125.88
2023-01-21T04:10:15.379Z,101243.88
2023-01-21T04:12:42.023Z,101114.31
2023-01-21T04:15:12.172Z,101235.84
2023-01-21T04:17:38.803Z,101223.56
2023-01-21T04:20:06.850Z,101257.53
2023-01-21T04:22:33.297Z,101154.41
2023-01-21T04:24:59.775Z,101275.78
2023-01-21T04:27:26.269Z,101210.53
2023-01-21T04:29:52.732Z,101272.56
2023-01-21T04:32:19.269Z,101255.78
2023-01-21T04:34:45.793Z,101178.81
2023-01-21T04:37:12.334Z,101261.91
2023-01-21T04:39:38.894Z,101213.69
2023-01-21T04:42:05.479Z,101175.13
2023-01-21T04:44:31.982Z,101285.13
2023-01-21T04:46:58.497Z,101069.38
2023-01-21T04:49:25.003Z,101088.63
2023-01-21T04:51:51.576Z,101049.00
2023-01-21T04:54:18.040Z,101228.13
2023-01-21T04:56:44.519Z,101254.53
2023-01-21T04:59:11.697Z,101225.66
2023-01-21T05:01:38.155Z,101134.63
2023-01-21T05:04:04.873Z,101188.75
2023-01-21T05:06:31.336Z,101247.38
2023-01-21T05:08:57.977Z,101254.28
2023-01-21T05:11:24.724Z,101201.06
2023-01-21T05:13:51.205Z,101159.81
2023-01-21T05:16:17.723Z,101189.69
2023-01-21T05:18:46.747Z,101293.69
2023-01-21T05:21:13.316Z,101270.81
2023-01-21T05:23:39.919Z,101286.50
2023-01-21T05:26:06.481Z,101292.53
2023-01-21T05:28:32.922Z,101204.94
2023-01-21T05:31:01.373Z,101307.34
2023-01-21T05:33:35.626Z,101301.25
2023-01-21T05:36:03.755Z,101273.22
2023-01-21T05:38:30.777Z,101297.69
2023-01-21T05:40:59.174Z,101263.50
2023-01-21T05:43:26.124Z,101281.84
2023-01-21T05:45:52.870Z,101305.63
2023-01-21T05:48:19.505Z,101288.13
2023-01-21T05:50:46.066Z,101295.22
2023-01-21T05:53:12.526Z,101294.28
2023-01-21T05:55:39.145Z,101268.28
2023-01-21T05:58:05.953Z,101228.03
2023-01-21T06:00:32.568Z,101324.09
2023-01-21T06:03:02.537Z,101296.97
2023-01-21T06:05:29.438Z,101250.63
2023-01-21T06:07:56.264Z,101298.84
2023-01-21T06:10:22.881Z,101305.66
2023-01-21T06:12:52.975Z,101195.34
2023-01-21T06:15:20.361Z,101252.03
2023-01-21T06:17:47.549Z,101274.09
2023-01-21T06:20:14.399Z,101279.13
2023-01-21T06:22:41.225Z,101351.75
2023-01-21T06:25:08.049Z,101217.94
2023-01-21T06:27:37.147Z,101337.84
2023-01-21T06:30:06.156Z,101347.44
2023-01-21T06:32:33.960Z,101270.28
2023-01-21T06:35:00.493Z,101344.78
2023-01-21T06:37:27.330Z,101350.91
2023-01-21T06:39:54.224Z,101302.59
2023-01-21T06:42:20.832Z,101307.00
2023-01-21T06:44:47.595Z,101309.53
2023-01-21T06:47:14.602Z,101314.78
2023-01-21T06:49:43.528Z,101204.66
2023-01-21T06:52:10.132Z,101263.94
2023-01-21T06:54:36.662Z,101274.41
2023-01-21T06:57:03.298Z,101376.75
2023-01-21T06:59:29.837Z,101319.81
2023-01-21T07:01:59.024Z,101338.22
2023-01-21T07:04:26.685Z,101241.84
2023-01-21T07:06:53.905Z,101394.19
2023-01-21T07:09:21.032Z,101400.31
2023-01-21T07:11:48.015Z,101407.28
2023-01-21T07:14:14.564Z,101397.78
2023-01-21T07:16:41.213Z,101351.25
2023-01-21T07:19:07.840Z,101305.56
2023-01-21T07:21:34.473Z,101413.25
2023-01-21T07:24:00.909Z,101379.78
2023-01-21T07:26:27.455Z,101348.25
2023-01-21T07:28:53.996Z,101259.06
2023-01-21T07:31:20.783Z,101278.38
2023-01-21T07:33:47.486Z,101315.94
2023-01-21T07:36:13.994Z,101259.03
2023-01-21T07:38:40.488Z,101381.59
2023-01-21T07:41:07.007Z,101370.47
2023-01-21T07:43:33.704Z,101420.47
2023-01-21T07:46:00.513Z,101367.06
2023-01-21T07:48:27.054Z,101341.00
2023-01-21T07:50:58.613Z,101434.56
2023-01-21T07:53:25.600Z,101317.34
2023-01-21T07:55:52.055Z,101232.47
2023-01-21T07:58:18.793Z,101347.09
2023-01-21T08:00:45.300Z,101279.75
2023-01-21T08:03:11.769Z,101368.41
2023-01-21T08:05:38.271Z,101427.09
2023-01-21T08:08:04.971Z,101440.09
2023-01-21T08:10:31.453Z,101367.59
2023-01-21T08:12:57.968Z,101400.00
2023-01-21T08:15:24.480Z,101413.28
2023-01-21T08:17:50.997Z,101438.56
2023-01-21T08:20:17.760Z,101447.28
2023-01-21T08:22:44.305Z,101242.50
2023-01-21T08:25:11.942Z,101435.09
2023-01-21T08:27:38.542Z,101399.16
2023-01-21T08:30:05.518Z,101456.09
2023-01-21T08:32:32.019Z,101363.50
2023-01-21T08:34:58.643Z,101448.56
2023-01-21T08:37:25.345Z,101425.06
2023-01-21T08:39:51.849Z,101447.06
2023-01-21T08:42:18.348Z,101416.47
2023-01-21T08:44:46.137Z,101370.28
2023-01-21T08:47:12.646Z,101403.69
2023-01-21T08:49:39.145Z,101361.59
2023-01-21T08:52:05.908Z,101347.00
2023-01-21T08:54:32.439Z,101426.47
2023-01-21T08:56:58.908Z,101376.81
2023-01-21T08:59:28.725Z,101464.41
2023-01-21T09:01:56.507Z,101483.56
2023-01-21T09:04:23.515Z,101417.22
2023-01-21T09:06:50.176Z,101431.25
2023-01-21T09:09:16.756Z,101481.22
2023-01-21T09:11:43.430Z,101325.53
2023-01-21T09:14:09.999Z,101377.13
2023-01-21T09:16:36.789Z,101433.22
2023-01-21T09:19:03.781Z,101461.19
2023-01-21T09:21:30.491Z,101384.91
2023-01-21T09:23:56.918Z,101391.03
2023-01-21T09:26:24.733Z,101398.06
2023-01-21T09:28:54.219Z,101486.59
2023-01-21T09:31:24.339Z,101293.06
2023-01-21T09:33:57.263Z,101341.09
2023-01-21T09:36:26.936Z,101507.31
2023-01-21T09:38:53.830Z,101402.41
2023-01-21T09:41:30.874Z,101415.41
2023-01-21T09:44:14.199Z,101495.13
2023-01-21T09:46:58.656Z,101461.75
2023-01-21T09:49:36.235Z,101519.66
2023-01-21T09:52:14.898Z,101519.84
2023-01-21T09:54:41.632Z,101521.72
2023-01-21T09:57:35.598Z,101522.53
2023-01-21T10:00:17.770Z,101516.50
2023-01-21T10:03:00.617Z,101521.72
2023-01-21T10:05:45.067Z,101514.00
2023-01-21T10:08:23.345Z,101515.84
2023-01-21T10:11:12.113Z,101517.63
2023-01-21T10:14:12.340Z,101519.41
2023-01-21T10:17:17.871Z,101391.84
2023-01-21T10:19:52.751Z,101506.50
2023-01-21T10:22:24.813Z,101297.38
2023-01-21T10:25:26.702Z,101467.06
2023-01-21T10:27:56.556Z,101449.50
2023-01-21T10:30:37.807Z,101448.69
2023-01-21T10:33:07.070Z,101515.03
2023-01-21T10:35:51.936Z,101509.00
2023-01-21T10:38:33.343Z,101509.16
2023-01-21T10:41:18.552Z,101513.56
2023-01-21T10:44:07.188Z,101454.13
2023-01-21T10:46:54.000Z,101510.81
2023-01-21T10:49:40.421Z,101513.31
2023-01-21T10:52:34.871Z,101511.34
2023-01-21T10:55:29.369Z,101521.69
2023-01-21T10:58:11.680Z,101520.94
2023-01-21T11:00:47.559Z,101267.47
2023-01-21T11:03:20.525Z,101362.06
2023-01-21T11:05:49.860Z,101438.13
2023-01-21T11:08:22.573Z,101275.72
2023-01-21T11:10:55.560Z,101526.53
2023-01-21T11:13:23.535Z,101519.59
2023-01-21T11:15:55.936Z,101410.88
2023-01-21T11:18:30.198Z,101509.94
2023-01-21T11:21:00.645Z,101367.31
2023-01-21T11:23:30.277Z,101477.47
2023-01-21T11:26:02.976Z,101355.91
2023-01-21T11:28:30.571Z,101433.63
2023-01-21T11:31:12.787Z,101524.75
2023-01-21T11:33:41.000Z,101437.25
2023-01-21T11:36:16.447Z,101526.44
2023-01-21T11:38:45.463Z,101529.91
2023-01-21T11:41:11.875Z,101520.38
2023-01-21T11:43:53.459Z,101522.13
2023-01-21T11:46:38.070Z,101459.94
2023-01-21T11:49:07.527Z,101531.72
2023-01-21T11:51:39.669Z,101468.69
2023-01-21T11:54:14.085Z,101522.19
2023-01-21T11:56:45.177Z,101529.16
2023-01-21T11:59:21.609Z,101533.69
2023-01-21T12:01:55.738Z,101530.25
2023-01-21T12:04:22.994Z,101458.44
2023-01-21T12:06:53.636Z,101517.22
2023-01-21T12:09:20.658Z,101498.78
2023-01-21T12:12:26.188Z,101467.41
2023-01-21T12:14:59.301Z,101479.56
2023-01-21T12:17:49.706Z,101481.34
2023-01-21T12:20:28.739Z,101525.19
2023-01-21T12:23:20.077Z,101536.53
2023-01-21T12:26:01.304Z,101530.41
2023-01-21T12:28:57.477Z,101443.78
2023-01-21T12:31:32.709Z,101526.97
2023-01-21T12:34:28.049Z,101525.34
2023-01-21T12:37:01.910Z,101534.09
2023-01-21T12:39:36.344Z,101536.72
2023-01-21T12:42:18.498Z,101498.28
2023-01-21T12:45:09.986Z,101483.53
2023-01-21T12:47:45.159Z,101488.88
2023-01-21T12:50:33.073Z,101519.56
2023-01-21T12:53:15.234Z,101483.66
2023-01-21T12:56:23.374Z,101508.19
2023-01-21T12:58:59.755Z,101496.72
2023-01-21T13:01:41.400Z,101520.31
2023-01-21T13:04:26.242Z,101517.72
2023-01-21T13:07:02.317Z,101491.53
2023-01-21T13:09:46.938Z,101499.34
2023-01-21T13:12:20.305Z,101447.75
2023-01-21T13:14:53.999Z,101527.28
2023-01-21T13:17:29.320Z,101461.69
2023-01-21T13:19:55.826Z,101522.13
2023-01-21T13:22:54.719Z,101483.75
2023-01-21T13:25:58.649Z,101524.81
2023-01-21T13:28:37.407Z,101510.97
2023-01-21T13:31:23.904Z,101503.06
2023-01-21T13:34:08.680Z,101524.03
2023-01-21T13:36:57.743Z,101497.78
2023-01-21T13:39:28.576Z,101510.91
2023-01-21T13:42:09.409Z,101471.53
2023-01-21T13:44:50.618Z,101524.88
2023-01-21T13:47:26.989Z,101523.03
2023-01-21T13:50:37.600Z,101523.03
2023-01-21T13:53:29.453Z,101412.94
2023-01-21T13:56:08.056Z,101521.44
2023-01-21T13:59:01.576Z,101465.53
2023-01-21T14:01:37.094Z,101509.19
2023-01-21T14:04:18.744Z,101477.81
2023-01-21T14:07:06.993Z,101528.56
2023-01-21T14:09:40.707Z,101513.75
2023-01-21T14:12:21.580Z,101539.88
2023-01-21T14:14:57.039Z,101530.25
2023-01-21T14:17:34.129Z,101530.19
2023-01-21T14:20:20.139Z,101525.84
2023-01-21T14:23:04.874Z,101528.44
2023-01-21T14:25:54.686Z,101492.41
2023-01-21T14:28:42.594Z,101540.53
2023-01-21T14:31:24.076Z,101486.22
2023-01-21T14:33:59.427Z,101541.38
2023-01-21T14:37:13.447Z,101519.50
2023-01-21T14:40:16.246Z,101493.34
2023-01-21T14:42:50.409Z,101534.47
2023-01-21T14:45:23.427Z,101531.88
2023-01-21T14:47:52.651Z,101540.53
2023-01-21T14:50:46.946Z,101483.72
2023-01-21T14:53:25.715Z,101539.66
2023-01-21T14:56:05.935Z,101471.47
2023-01-21T14:58:35.805Z,101534.28
2023-01-21T15:01:04.237Z,101544.91
2023-01-21T15:03:31.716Z,101495.03
2023-01-21T15:06:03.341Z,101538.72
2023-01-21T15:08:45.590Z,101383.22
2023-01-21T15:11:30.516Z,101537.91
2023-01-21T15:14:12.340Z,101500.25
2023-01-21T15:16:44.014Z,101524.75
2023-01-21T15:19:11.208Z,101539.69
2023-01-21T15:21:40.604Z,101544.06
2023-01-21T15:24:26.934Z,101554.44
2023-01-21T15:27:18.383Z,101551.84
2023-01-21T15:30:05.642Z,101553.53
2023-01-21T15:32:35.225Z,101544.72
2023-01-21T15:35:13.632Z,101494.00
2023-01-21T15:37:44.115Z,101561.31
2023-01-21T15:40:19.837Z,101550.09
2023-01-21T15:43:23.677Z,101549.19
2023-01-21T15:46:27.791Z,101558.66
2023-01-21T15:49:00.451Z,101565.56
2023-01-21T15:51:54.597Z,101541.97
2023-01-21T15:54:39.677Z,101529.13
2023-01-21T15:57:09.667Z,101551.91
2023-01-21T15:59:53.078Z,101553.56
2023-01-21T16:02:27.343Z,101557.84
2023-01-21T16:05:02.180Z,101567.28
2023-01-21T16:07:45.047Z,101567.28
2023-01-21T16:10:34.724Z,101535.66
2023-01-21T16:13:23.631Z,101524.25
2023-01-21T16:16:10.980Z,101572.44
2023-01-21T16:18:50.267Z,101570.75
2023-01-21T16:21:22.367Z,101563.63
2023-01-21T16:23:52.203Z,101581.13
2023-01-21T16:26:31.951Z,101559.34
2023-01-21T16:28:59.291Z,101573.34
2023-01-21T16:31:26.040Z,101561.03
2023-01-21T16:33:53.681Z,101577.63
2023-01-21T16:36:20.354Z,101580.22
2023-01-21T16:38:47.287Z,101582.00
2023-01-21T16:41:14.689Z,101555.94
2023-01-21T16:43:50.978Z,101554.97
2023-01-21T16:46:22.395Z,101469.06
2023-01-21T16:48:51.540Z,101547.06
2023-01-21T16:51:33.670Z,101558.41
2023-01-21T16:54:25.377Z,101563.63
2023-01-21T16:56:56.172Z,101556.75
2023-01-21T16:59:30.516Z,101508.63
2023-01-21T17:01:59.053Z,101476.28
2023-01-21T17:04:25.754Z,101547.94
2023-01-21T17:06:53.945Z,101484.19
2023-01-21T17:09:33.873Z,101416.88
2023-01-21T17:12:10.633Z,101543.66
2023-01-21T17:14:37.610Z,101475.53
2023-01-21T17:17:08.942Z,101531.44
2023-01-21T17:19:42.537Z,101484.16
2023-01-21T17:22:16.150Z,101542.81
2023-01-21T17:24:56.166Z,101494.56
2023-01-21T17:27:23.408Z,101499.88
2023-01-21T17:29:51.281Z,101542.78
2023-01-21T17:32:30.141Z,101556.72
2023-01-21T17:35:23.907Z,101556.69
2023-01-21T17:38:01.566Z,101558.41
2023-01-21T17:40:30.137Z,101544.34
2023-01-21T17:42:58.115Z,101565.38
2023-01-21T17:45:38.396Z,101510.22
2023-01-21T17:48:10.167Z,101436.78
2023-01-21T17:50:58.862Z,101564.53
2023-01-21T17:53:33.808Z,101566.25
2023-01-21T17:56:07.023Z,101472.56
2023-01-21T17:58:46.024Z,101561.06
2023-01-21T18:01:13.890Z,101442.13
2023-01-21T18:03:40.463Z,101565.34
2023-01-21T18:06:33.934Z,101476.19
2023-01-21T18:11:45.625Z,101570.78
2023-01-21T18:14:22.648Z,101538.53
2023-01-21T18:16:49.620Z,101533.25
2023-01-21T18:19:35.806Z,101537.66
2023-01-21T18:22:05.250Z,101491.34
2023-01-21T18:24:32.027Z,101535.97
2023-01-21T18:27:00.819Z,101530.69
2023-01-21T18:29:30.271Z,101524.53
2023-01-21T18:31:58.398Z,101518.44
2023-01-21T18:34:25.159Z,101507.94
2023-01-21T18:36:51.965Z,101535.91
2023-01-21T18:39:19.445Z,101532.44
2023-01-21T18:41:46.350Z,101539.34
2023-01-21T18:44:13.679Z,101495.69
2023-01-21T18:46:42.346Z,101565.56
2023-01-21T18:49:17.010Z,101563.13
2023-01-21T18:51:44.315Z,101519.41
2023-01-21T18:54:13.094Z,101559.56
2023-01-21T18:56:40.407Z,101508.06
2023-01-21T18:59:13.792Z,101434.59
2023-01-21T19:01:41.601Z,101446.00
2023-01-21T19:04:09.747Z,101503.72
2023-01-21T19:06:36.688Z,101478.38
2023-01-21T19:09:04.162Z,101515.84
2023-01-21T19:11:31.816Z,101389.16
2023-01-21T19:13:58.595Z,101398.69
2023-01-21T19:16:25.389Z,101553.63
2023-01-21T19:18:52.108Z,101565.81
2023-01-21T19:21:19.231Z,101473.06
2023-01-21T19:23:46.093Z,101456.47
2023-01-21T19:26:14.778Z,101529.16
2023-01-21T19:28:41.502Z,101300.16
2023-01-21T19:31:08.310Z,101393.63
2023-01-21T19:33:36.188Z,101520.44
2023-01-21T19:36:12.687Z,101487.28
2023-01-21T19:38:42.681Z,101541.47
2023-01-21T19:41:11.345Z,101535.38
2023-01-21T19:43:40.201Z,101424.38
2023-01-21T19:46:11.466Z,101454.94
2023-01-21T19:48:38.456Z,101353.63
2023-01-21T19:51:05.348Z,101341.41
2023-01-21T19:53:32.128Z,101405.19
2023-01-21T19:55:59.057Z,101424.50
2023-01-21T19:58:28.801Z,101538.16
2023-01-21T20:00:55.840Z,101478.72
2023-01-21T20:03:24.897Z,101550.31
2023-01-21T20:05:55.036Z,101452.44
2023-01-21T20:08:27.390Z,101491.88
2023-01-21T20:10:54.061Z,101401.88
2023-01-21T20:13:20.793Z,101386.97
2023-01-21T20:15:49.721Z,101422.84
2023-01-21T20:18:24.759Z,101546.06
2023-01-21T20:20:52.389Z,101336.28
2023-01-21T20:23:20.425Z,101407.09
2023-01-21T20:25:51.058Z,101390.63
2023-01-21T20:28:21.628Z,101537.41
2023-01-21T20:30:50.463Z,101445.59
2023-01-21T20:33:20.640Z,101434.31
2023-01-21T20:35:54.570Z,101311.88
2023-01-21T20:38:30.349Z,101518.28
2023-01-21T20:40:58.565Z,101527.00
2023-01-21T20:43:29.633Z,101389.75
2023-01-21T20:46:06.973Z,101471.91
2023-01-21T20:48:36.949Z,101388.06
2023-01-21T20:51:04.657Z,101506.09
2023-01-21T20:53:31.635Z,101504.38
2023-01-21T20:56:00.785Z,101483.38
2023-01-21T20:58:28.069Z,101372.44
2023-01-21T21:00:55.476Z,101461.59
2023-01-21T21:03:22.371Z,101381.09
2023-01-21T21:05:49.581Z,101441.50
2023-01-21T21:08:21.335Z,101507.13
2023-01-21T21:10:50.786Z,101509.72
2023-01-21T21:13:17.365Z,101492.25
2023-01-21T21:15:46.441Z,101444.22
2023-01-21T21:18:13.923Z,101494.06
2023-01-21T21:20:40.892Z,101486.25
2023-01-21T21:23:09.892Z,101378.81
2023-01-21T21:25:59.314Z,101386.69
2023-01-21T21:28:25.958Z,101336.03
2023-01-21T21:30:52.763Z,101386.66
2023-01-21T21:33:21.836Z,101486.31
2023-01-21T21:35:49.627Z,101462.63
2023-01-21T21:38:18.671Z,101424.19
2023-01-21T21:40:49.859Z,101392.69
2023-01-21T21:43:33.623Z,101496.56
2023-01-21T21:46:28.627Z,101475.69
2023-01-21T21:48:55.157Z,101348.94
2023-01-21T21:51:22.727Z,101366.31
2023-01-21T21:53:50.003Z,101376.81
2023-01-21T21:56:22.891Z,101277.28
2023-01-21T21:58:51.071Z,101382.88
2023-01-21T22:01:19.728Z,101462.53
2023-01-21T22:03:47.055Z,101438.91
2023-01-21T22:06:14.545Z,101362.06
2023-01-21T22:08:42.902Z,101328.88
2023-01-21T22:11:13.764Z,101451.19
2023-01-21T22:13:43.490Z,101417.16
2023-01-21T22:16:15.086Z,101407.59
2023-01-21T22:18:42.131Z,101448.66
2023-01-21T22:21:12.973Z,101399.75
2023-01-21T22:23:39.655Z,101296.69
2023-01-21T22:26:14.575Z,101440.78
2023-01-21T22:28:43.277Z,101423.31
2023-01-21T22:31:14.348Z,101286.28
2023-01-21T22:33:43.823Z,101420.72
2023-01-21T22:36:13.624Z,101384.88
2023-01-21T22:38:40.904Z,101324.78
2023-01-21T22:41:10.511Z,101175.44
2023-01-21T22:43:39.213Z,101266.28
2023-01-21T22:46:06.077Z,101359.66
2023-01-21T22:48:32.937Z,101267.97
2023-01-21T22:51:01.077Z,101393.78
2023-01-21T22:53:28.441Z,101334.41
2023-01-21T22:56:00.176Z,101378.09
2023-01-21T22:58:28.595Z,101247.13
2023-01-21T23:00:56.015Z,101330.97
2023-01-21T23:03:24.262Z,101276.81
2023-01-21T23:05:51.383Z,101329.19
2023-01-21T23:08:19.272Z,101424.50
2023-01-21T23:10:46.890Z,101397.44
2023-01-21T23:13:14.842Z,101214.88
2023-01-21T23:15:46.119Z,101306.66
2023-01-21T23:18:14.432Z,101397.44
2023-01-21T23:20:42.396Z,101278.63
2023-01-21T23:23:11.293Z,101368.69
2023-01-21T23:25:45.716Z,101409.66
2023-01-21T23:28:13.577Z,101256.88
2023-01-21T23:30:41.041Z,101340.72
2023-01-21T23:33:11.608Z,101378.25
2023-01-21T23:35:39.131Z,101380.00
2023-01-21T23:38:06.034Z,101085.97
2023-01-21T23:43:27.390Z,101394.78
2023-01-21T23:45:55.337Z,101394.00
2023-01-21T23:48:22.478Z,101378.25
2023-01-21T23:50:49.113Z,101333.78
2023-01-21T23:53:16.127Z,101359.94
2023-01-21T23:55:42.747Z,101230.75
2023-01-21T23:58:09.202Z,101280.44
